createdAt,value
2022-12-05T00:01:45.797Z,33.05
2022-12-05T00:04:15.579Z,38.25
2022-12-05T00:06:44.454Z,37.97
2022-12-05T00:09:14.266Z,32.97
2022-12-05T00:11:44.045Z,33.10
2022-12-05T00:14:13.444Z,31.73
2022-12-05T00:16:44.835Z,31.77
2022-12-05T00:19:15.044Z,34.30
2022-12-05T00:21:43.886Z,34.05
2022-12-05T00:24:14.898Z,23.45
2022-12-05T00:26:43.860Z,35.38
2022-12-05T00:29:12.607Z,36.05
2022-12-05T00:31:41.138Z,25.83
2022-12-05T00:34:11.387Z,23.35
2022-12-05T00:36:39.704Z,30.95
2022-12-05T00:39:10.342Z,32.05
2022-12-05T00:41:38.891Z,34.60
2022-12-05T00:44:07.786Z,32.67
2022-12-05T00:46:37.207Z,21.88
2022-12-05T00:51:37.609Z,33.53
2022-12-05T00:54:08.098Z,29.08
2022-12-05T00:56:36.571Z,30.55
2022-12-05T00:59:06.855Z,31.67
2022-12-05T01:01:37.588Z,30.30
2022-12-05T01:04:09.623Z,26.95
2022-12-05T01:06:40.258Z,26.58
2022-12-05T01:09:09.856Z,25.55
2022-12-05T01:14:10.605Z,27.60
2022-12-05T01:16:40.888Z,30.70
2022-12-05T01:19:12.604Z,26.30
2022-12-05T01:21:42.598Z,27.73
2022-12-05T01:24:11.561Z,29.27
2022-12-05T01:26:41.312Z,19.88
2022-12-05T01:29:09.707Z,27.33
2022-12-05T01:31:38.823Z,27.75
2022-12-05T01:34:13.915Z,28.90
2022-12-05T01:36:43.978Z,27.42
2022-12-05T01:39:13.545Z,30.40
2022-12-05T01:41:44.338Z,30.90
2022-12-05T01:44:45.830Z,27.80
2022-12-05T01:47:16.964Z,30.67
2022-12-05T01:49:45.819Z,28.83
2022-12-05T01:52:19.675Z,21.45
2022-12-05T01:54:49.495Z,29.50
2022-12-05T01:57:18.014Z,27.08
2022-12-05T01:59:50.836Z,27.80
2022-12-05T02:02:19.943Z,27.08
2022-12-05T02:05:00.395Z,28.55
2022-12-05T02:07:31.102Z,27.48
2022-12-05T02:09:59.508Z,26.38
2022-12-05T02:12:27.935Z,30.73
2022-12-05T02:15:14.869Z,27.15
2022-12-05T02:17:49.009Z,26.50
2022-12-05T02:20:33.693Z,29.95
2022-12-05T02:23:23.504Z,27.58
2022-12-05T02:26:06.172Z,25.13
2022-12-05T02:28:55.154Z,27.27
2022-12-05T02:31:35.065Z,24.48
2022-12-05T02:34:11.748Z,24.48
2022-12-05T02:36:45.773Z,27.42
2022-12-05T02:39:18.395Z,27.13
2022-12-05T02:41:52.830Z,27.80
2022-12-05T02:44:26.053Z,27.45
2022-12-05T02:46:56.652Z,29.08
2022-12-05T02:49:30.596Z,30.02
2022-12-05T02:52:00.814Z,27.15
2022-12-05T02:54:32.914Z,29.55
2022-12-05T02:57:02.047Z,27.23
2022-12-05T02:59:30.433Z,28.10
2022-12-05T03:01:59.958Z,26.63
2022-12-05T03:04:30.363Z,31.55
2022-12-05T03:07:01.869Z,33.78
2022-12-05T03:09:34.246Z,28.25
2022-12-05T03:12:08.876Z,27.60
2022-12-05T03:14:40.318Z,28.58
2022-12-05T03:17:14.763Z,27.73
2022-12-05T03:19:49.345Z,26.20
2022-12-05T03:22:23.414Z,25.98
2022-12-05T03:24:51.885Z,26.83
2022-12-05T03:27:26.996Z,24.73
2022-12-05T03:30:01.893Z,29.65
2022-12-05T03:32:38.320Z,28.75
2022-12-05T03:35:10.425Z,29.00
2022-12-05T03:37:48.435Z,27.58
2022-12-05T03:40:33.363Z,29.65
2022-12-05T03:43:09.232Z,35.22
2022-12-05T03:45:45.132Z,32.45
2022-12-05T03:48:20.377Z,33.45
2022-12-05T03:50:50.045Z,29.00
2022-12-05T03:53:21.616Z,39.17
2022-12-05T03:55:58.154Z,32.95
2022-12-05T03:58:31.704Z,33.00
2022-12-05T04:01:02.666Z,32.45
2022-12-05T04:03:40.315Z,31.90
2022-12-05T04:06:15.122Z,32.50
2022-12-05T04:08:48.371Z,30.58
2022-12-05T04:11:20.873Z,29.83
2022-12-05T04:13:52.506Z,35.85
2022-12-05T04:16:41.670Z,27.85
2022-12-05T04:19:18.246Z,26.75
2022-12-05T04:21:49.713Z,25.63
2022-12-05T04:24:38.488Z,32.08
2022-12-05T04:27:24.123Z,26.63
2022-12-05T04:30:00.676Z,30.70
2022-12-05T04:32:33.900Z,31.15
2022-12-05T04:35:08.471Z,29.70
2022-12-05T04:37:42.067Z,33.33
2022-12-05T04:40:14.908Z,29.52
2022-12-05T04:42:45.331Z,29.20
2022-12-05T04:45:17.045Z,28.52
2022-12-05T04:47:50.181Z,32.17
2022-12-05T04:50:20.927Z,29.05
2022-12-05T04:52:53.197Z,29.65
2022-12-05T04:55:26.082Z,29.23
2022-12-05T04:58:08.725Z,31.33
2022-12-05T05:00:43.559Z,38.55
2022-12-05T05:03:16.180Z,34.17
2022-12-05T05:05:49.021Z,32.40
2022-12-05T05:08:22.452Z,33.63
2022-12-05T05:10:58.909Z,29.55
2022-12-05T05:13:27.263Z,32.65
2022-12-05T05:15:55.665Z,29.27
2022-12-05T05:18:23.781Z,41.10
2022-12-05T05:20:53.282Z,30.25
2022-12-05T05:23:21.483Z,30.65
2022-12-05T05:25:54.440Z,33.35
2022-12-05T05:28:22.707Z,33.30
2022-12-05T05:30:50.881Z,28.15
2022-12-05T05:33:19.028Z,34.13
2022-12-05T05:35:47.134Z,31.90
2022-12-05T05:38:16.656Z,39.35
2022-12-05T05:43:12.665Z,31.70
2022-12-05T05:45:41.112Z,30.77
2022-12-05T05:48:09.242Z,34.78
2022-12-05T05:50:38.037Z,33.10
2022-12-05T05:53:06.111Z,31.90
2022-12-05T05:55:35.663Z,33.28
2022-12-05T06:00:32.018Z,26.98
2022-12-05T06:03:00.758Z,25.20
2022-12-05T06:05:29.048Z,25.63
2022-12-05T06:07:57.483Z,24.00
2022-12-05T06:10:25.779Z,24.95
2022-12-05T06:12:55.371Z,28.15
2022-12-05T06:17:51.704Z,30.50
2022-12-05T06:20:20.057Z,30.02
2022-12-05T06:22:48.687Z,31.08
2022-12-05T06:25:17.073Z,24.00
2022-12-05T06:27:45.115Z,26.45
2022-12-05T06:30:15.530Z,27.35
2022-12-05T06:32:43.811Z,24.95
2022-12-05T06:35:16.056Z,27.42
2022-12-05T06:37:44.861Z,30.98
2022-12-05T06:40:14.391Z,21.15
2022-12-05T06:42:43.703Z,26.75
2022-12-05T06:45:12.771Z,26.52
2022-12-05T06:47:42.423Z,34.17
2022-12-05T06:50:11.517Z,22.75
2022-12-05T06:52:39.646Z,25.45
2022-12-05T06:55:08.536Z,22.77
2022-12-05T06:57:36.927Z,17.88
2022-12-05T07:00:24.449Z,23.25
2022-12-05T07:02:54.283Z,33.90
2022-12-05T07:05:22.959Z,26.00
2022-12-05T07:07:51.578Z,27.73
2022-12-05T07:10:20.251Z,31.70
2022-12-05T07:12:48.407Z,29.67
2022-12-05T07:15:16.707Z,30.27
2022-12-05T07:17:44.808Z,27.83
2022-12-05T07:20:17.762Z,30.08
2022-12-05T07:22:46.659Z,29.48
2022-12-05T07:25:15.267Z,29.33
2022-12-05T07:27:43.771Z,23.17
2022-12-05T07:30:12.425Z,21.60
2022-12-05T07:32:40.579Z,26.63
2022-12-05T07:35:09.429Z,27.13
2022-12-05T07:37:39.002Z,26.20
2022-12-05T07:42:35.950Z,25.23
2022-12-05T07:45:04.248Z,21.55
2022-12-05T07:47:32.623Z,22.33
2022-12-05T07:50:01.059Z,21.48
2022-12-05T07:52:29.838Z,18.40
2022-12-05T07:54:59.407Z,18.87
2022-12-05T07:59:56.333Z,22.30
2022-12-05T08:02:24.982Z,23.60
2022-12-05T08:04:53.162Z,17.60
2022-12-05T08:07:21.254Z,18.88
2022-12-05T08:09:49.349Z,19.42
2022-12-05T08:12:19.217Z,22.35
2022-12-05T08:14:47.388Z,23.42
2022-12-05T08:17:15.628Z,18.92
2022-12-05T08:19:43.915Z,20.90
2022-12-05T08:22:12.022Z,24.10
2022-12-05T08:24:40.853Z,22.50
2022-12-05T08:27:08.958Z,21.17
2022-12-05T08:29:38.847Z,22.15
2022-12-05T08:32:07.587Z,20.95
2022-12-05T08:34:35.725Z,17.45
2022-12-05T08:37:03.891Z,20.25
2022-12-05T08:39:38.020Z,17.42
2022-12-05T08:42:07.195Z,18.17
2022-12-05T08:44:35.504Z,25.07
2022-12-05T08:47:05.102Z,30.40
2022-12-05T08:49:33.486Z,102.65
2022-12-05T08:52:01.823Z,70.03
2022-12-05T08:54:29.992Z,30.20
2022-12-05T08:56:59.356Z,32.47
2022-12-05T08:59:27.705Z,27.67
2022-12-05T09:01:55.884Z,19.48
2022-12-05T09:04:25.387Z,19.95
2022-12-05T09:06:53.483Z,20.27
2022-12-05T09:09:21.544Z,18.48
2022-12-05T09:11:50.978Z,17.80
2022-12-05T09:16:48.676Z,16.33
2022-12-05T09:19:20.660Z,17.02
2022-12-05T09:21:50.106Z,15.48
2022-12-05T09:24:18.327Z,17.52
2022-12-05T09:26:47.609Z,16.52
2022-12-05T09:29:18.039Z,16.30
2022-12-05T09:31:48.574Z,17.30
2022-12-05T09:34:18.669Z,16.33
2022-12-05T09:36:51.276Z,15.02
2022-12-05T09:39:21.410Z,17.25
2022-12-05T09:42:09.585Z,14.25
2022-12-05T09:45:01.906Z,14.88
2022-12-05T09:47:36.616Z,17.48
2022-12-05T09:50:15.386Z,18.13
2022-12-05T09:52:48.114Z,13.98
2022-12-05T09:55:20.289Z,19.75
2022-12-05T09:57:52.487Z,19.73
2022-12-05T10:00:21.414Z,17.80
2022-12-05T10:02:59.740Z,20.25
2022-12-05T10:05:38.479Z,19.27
2022-12-05T10:08:17.991Z,18.50
2022-12-05T10:13:31.916Z,18.10
2022-12-05T10:16:04.130Z,18.88
2022-12-05T10:18:39.798Z,18.27
2022-12-05T10:21:16.780Z,17.00
2022-12-05T10:23:58.836Z,19.95
2022-12-05T10:26:31.389Z,21.63
2022-12-05T10:29:08.517Z,20.00
2022-12-05T10:31:39.486Z,19.38
2022-12-05T10:34:15.908Z,21.25
2022-12-05T10:36:53.946Z,21.23
2022-12-05T10:39:22.151Z,17.30
2022-12-05T10:41:52.128Z,17.77
2022-12-05T10:44:20.356Z,18.40
2022-12-05T10:46:49.160Z,16.95
2022-12-05T10:49:17.477Z,19.95
2022-12-05T10:51:46.205Z,19.02
2022-12-05T10:54:19.537Z,19.87
2022-12-05T10:56:49.199Z,21.33
2022-12-05T10:59:20.862Z,21.80
2022-12-05T11:01:51.897Z,22.95
2022-12-05T11:04:30.138Z,20.25
2022-12-05T11:07:00.864Z,23.95
2022-12-05T11:09:31.049Z,39.97
2022-12-05T11:12:05.172Z,78.85
2022-12-05T11:14:36.325Z,53.38
2022-12-05T11:17:06.875Z,21.13
2022-12-05T11:19:36.693Z,18.73
2022-12-05T11:22:07.977Z,17.27
2022-12-05T11:24:38.406Z,17.77
2022-12-05T11:27:22.868Z,15.35
2022-12-05T11:30:02.378Z,17.15
2022-12-05T11:35:08.758Z,13.90
2022-12-05T11:37:41.873Z,18.52
2022-12-05T11:40:22.736Z,16.55
2022-12-05T11:43:14.447Z,18.45
2022-12-05T11:45:53.564Z,22.15
2022-12-05T11:48:35.799Z,20.10
2022-12-05T11:51:23.331Z,17.98
2022-12-05T11:54:06.539Z,33.65
2022-12-05T11:56:39.464Z,21.33
2022-12-05T11:59:29.535Z,31.35
2022-12-05T12:02:09.286Z,28.73
2022-12-05T12:04:51.696Z,52.13
2022-12-05T12:07:29.688Z,40.08
2022-12-05T12:10:10.399Z,41.58
2022-12-05T12:12:49.657Z,51.85
2022-12-05T12:15:51.058Z,32.67
2022-12-05T12:18:33.509Z,60.63
2022-12-05T12:21:10.110Z,39.53
2022-12-05T12:23:50.729Z,27.20
2022-12-05T12:26:27.292Z,25.10
2022-12-05T12:29:04.529Z,23.33
2022-12-05T12:31:46.183Z,40.85
2022-12-05T12:34:40.870Z,23.77
2022-12-05T12:37:19.023Z,26.15
2022-12-05T12:39:53.637Z,30.85
2022-12-05T12:42:28.550Z,25.38
2022-12-05T12:45:21.609Z,22.95
2022-12-05T12:48:04.576Z,21.25
2022-12-05T12:50:41.813Z,25.67
2022-12-05T12:53:36.123Z,22.98
2022-12-05T12:56:16.325Z,22.13
2022-12-05T12:58:51.770Z,20.95
2022-12-05T13:01:30.292Z,20.63
2022-12-05T13:04:04.328Z,16.10
2022-12-05T13:06:41.229Z,16.38
2022-12-05T13:09:17.267Z,20.00
2022-12-05T13:11:47.800Z,20.10
2022-12-05T13:14:18.630Z,21.88
2022-12-05T13:16:52.012Z,18.42
2022-12-05T13:19:29.551Z,26.70
2022-12-05T13:22:00.318Z,21.15
2022-12-05T13:24:29.792Z,24.60
2022-12-05T13:27:01.375Z,21.67
2022-12-05T13:29:34.088Z,20.38
2022-12-05T13:32:04.016Z,17.92
2022-12-05T13:34:48.658Z,16.67
2022-12-05T13:37:44.804Z,20.45
2022-12-05T13:40:48.754Z,16.98
2022-12-05T13:43:19.863Z,17.83
2022-12-05T13:46:03.084Z,19.55
2022-12-05T13:48:34.176Z,20.10
2022-12-05T13:51:06.924Z,23.13
2022-12-05T13:53:40.751Z,22.20
2022-12-05T13:56:27.540Z,18.85
2022-12-05T13:58:57.246Z,19.83
2022-12-05T14:01:53.743Z,18.23
2022-12-05T14:04:50.621Z,15.77
2022-12-05T14:07:43.203Z,18.77
2022-12-05T14:10:16.640Z,28.58
2022-12-05T14:12:51.081Z,22.05
2022-12-05T14:15:34.313Z,18.98
2022-12-05T14:18:12.230Z,20.73
2022-12-05T14:20:50.500Z,20.55
2022-12-05T14:23:45.857Z,17.45
2022-12-05T14:26:33.245Z,17.13
2022-12-05T14:29:14.840Z,15.00
2022-12-05T14:31:57.326Z,14.90
2022-12-05T14:34:30.052Z,11.80
2022-12-05T14:37:04.673Z,14.73
2022-12-05T14:39:41.982Z,19.30
2022-12-05T14:42:26.382Z,13.38
2022-12-05T14:44:58.451Z,15.65
2022-12-05T14:47:30.526Z,21.10
2022-12-05T14:50:02.826Z,19.20
2022-12-05T14:52:34.239Z,27.05
2022-12-05T14:55:07.281Z,21.23
2022-12-05T14:57:44.320Z,17.63
2022-12-05T15:00:22.418Z,14.85
2022-12-05T15:02:53.483Z,13.70
2022-12-05T15:05:27.419Z,13.02
2022-12-05T15:07:57.619Z,16.98
2022-12-05T15:10:29.503Z,17.33
2022-12-05T15:13:01.552Z,18.75
2022-12-05T15:15:37.122Z,19.73
2022-12-05T15:18:15.673Z,19.90
2022-12-05T15:20:50.591Z,20.02
2022-12-05T15:23:41.826Z,25.17
2022-12-05T15:29:18.330Z,28.35
2022-12-05T15:31:49.259Z,23.67
2022-12-05T15:34:21.724Z,22.95
2022-12-05T15:36:56.629Z,20.30
2022-12-05T15:39:28.656Z,17.98
2022-12-05T15:41:58.268Z,25.80
2022-12-05T15:44:37.530Z,46.88
2022-12-05T15:47:06.356Z,30.95
2022-12-05T15:49:34.549Z,21.60
2022-12-05T15:52:15.559Z,20.85
2022-12-05T15:54:45.105Z,18.17
2022-12-05T15:57:17.979Z,18.92
2022-12-05T15:59:51.535Z,18.70
2022-12-05T16:02:24.318Z,18.77
2022-12-05T16:04:57.940Z,20.08
2022-12-05T16:07:30.268Z,21.25
2022-12-05T16:10:01.213Z,17.98
2022-12-05T16:12:36.599Z,19.25
2022-12-05T16:15:11.662Z,17.08
2022-12-05T16:17:43.783Z,25.15
2022-12-05T16:20:21.959Z,27.30
2022-12-05T16:22:51.569Z,24.33
2022-12-05T16:27:59.062Z,20.73
2022-12-05T16:30:30.528Z,16.80
2022-12-05T16:33:04.915Z,18.23
2022-12-05T16:35:38.110Z,20.20
2022-12-05T16:38:16.455Z,20.45
2022-12-05T16:40:57.590Z,14.93
2022-12-05T16:43:29.222Z,13.43
2022-12-05T16:46:01.013Z,12.85
2022-12-05T16:48:30.754Z,16.80
2022-12-05T16:51:19.320Z,15.90
2022-12-05T16:53:49.710Z,11.53
2022-12-05T16:56:21.798Z,11.98
2022-12-05T16:58:49.983Z,13.00
2022-12-05T17:01:21.996Z,12.52
2022-12-05T17:03:50.318Z,14.90
2022-12-05T17:06:19.240Z,17.92
2022-12-05T17:08:47.450Z,12.85
2022-12-05T17:11:18.726Z,15.68
2022-12-05T17:13:48.521Z,16.60
2022-12-05T17:16:17.364Z,14.25
2022-12-05T17:18:47.239Z,11.70
2022-12-05T17:21:18.063Z,10.60
2022-12-05T17:23:48.207Z,14.02
2022-12-05T17:26:18.561Z,13.45
2022-12-05T17:28:46.955Z,17.88
2022-12-05T17:31:17.410Z,17.38
2022-12-05T17:33:47.953Z,14.43
2022-12-05T17:36:16.928Z,13.40
2022-12-05T17:38:45.734Z,17.83
2022-12-05T17:41:16.746Z,12.07
2022-12-05T17:43:45.725Z,25.60
2022-12-05T17:46:16.781Z,44.78
2022-12-05T17:48:46.405Z,44.22
2022-12-05T17:53:44.515Z,37.58
2022-12-05T17:56:13.297Z,29.48
2022-12-05T17:58:41.779Z,25.85
2022-12-05T18:01:14.987Z,17.65
2022-12-05T18:03:43.414Z,19.90
2022-12-05T18:06:13.268Z,15.98
2022-12-05T18:08:43.936Z,14.27
2022-12-05T18:11:12.257Z,15.23
2022-12-05T18:13:40.382Z,12.48
2022-12-05T18:16:09.365Z,13.38
2022-12-05T18:18:38.107Z,11.25
2022-12-05T18:21:08.410Z,17.80
2022-12-05T18:23:38.683Z,26.23
2022-12-05T18:26:08.854Z,26.83
2022-12-05T18:28:38.577Z,20.55
2022-12-05T18:31:11.552Z,20.45
2022-12-05T18:33:40.265Z,16.90
2022-12-05T18:36:11.458Z,15.80
2022-12-05T18:38:42.774Z,19.27
2022-12-05T18:41:11.703Z,17.08
2022-12-05T18:43:40.527Z,17.13
2022-12-05T18:46:09.046Z,17.38
2022-12-05T18:48:40.180Z,16.77
2022-12-05T18:51:13.233Z,19.55
2022-12-05T18:53:51.474Z,15.80
2022-12-05T18:56:22.712Z,16.63
2022-12-05T18:58:56.060Z,17.40
2022-12-05T19:01:24.515Z,16.45
2022-12-05T19:03:53.014Z,17.45
2022-12-05T19:06:22.977Z,18.88
2022-12-05T19:08:54.905Z,20.27
2022-12-05T19:11:23.901Z,24.38
2022-12-05T19:13:55.806Z,13.88
2022-12-05T19:16:24.671Z,16.50
2022-12-05T19:18:56.228Z,15.43
2022-12-05T19:21:24.932Z,19.52
2022-12-05T19:23:56.079Z,18.87
2022-12-05T19:26:25.306Z,17.55
2022-12-05T19:28:53.481Z,21.13
2022-12-05T19:31:24.023Z,24.33
2022-12-05T19:33:54.531Z,25.65
2022-12-05T19:36:23.990Z,23.05
2022-12-05T19:38:55.367Z,31.75
2022-12-05T19:41:25.731Z,27.67
2022-12-05T19:43:54.448Z,29.45
2022-12-05T19:46:25.132Z,30.20
2022-12-05T19:48:54.310Z,29.25
2022-12-05T19:51:22.416Z,29.15
2022-12-05T19:53:50.782Z,26.95
2022-12-05T19:56:22.917Z,38.60
2022-12-05T19:58:52.336Z,39.95
2022-12-05T20:01:22.406Z,42.50
2022-12-05T20:03:52.309Z,49.97
2022-12-05T20:06:21.011Z,41.72
2022-12-05T20:08:51.194Z,30.90
2022-12-05T20:11:24.697Z,42.97
2022-12-05T20:13:54.585Z,39.28
2022-12-05T20:16:26.779Z,36.53
2022-12-05T20:18:57.985Z,35.90
2022-12-05T20:21:28.019Z,34.10
2022-12-05T20:23:56.955Z,37.63
2022-12-05T20:26:28.722Z,36.42
2022-12-05T20:28:58.846Z,24.80
2022-12-05T20:31:29.422Z,26.05
2022-12-05T20:33:58.026Z,21.83
2022-12-05T20:36:28.571Z,24.60
2022-12-05T20:38:57.380Z,20.50
2022-12-05T20:41:27.618Z,19.52
2022-12-05T20:43:57.753Z,20.05
2022-12-05T20:46:26.572Z,16.63
2022-12-05T20:48:56.455Z,13.35
2022-12-05T20:51:26.817Z,21.15
2022-12-05T20:53:55.479Z,22.45
2022-12-05T20:56:26.898Z,28.90
2022-12-05T20:58:57.090Z,19.73
2022-12-05T21:01:26.667Z,27.23
2022-12-05T21:06:24.760Z,47.90
2022-12-05T21:11:21.522Z,52.00
2022-12-05T21:13:51.194Z,29.97
2022-12-05T21:16:21.582Z,34.08
2022-12-05T21:18:50.492Z,29.02
2022-12-05T21:21:20.799Z,49.25
2022-12-05T21:23:54.286Z,49.50
2022-12-05T21:26:23.312Z,44.60
2022-12-05T21:28:52.950Z,33.40
2022-12-05T21:31:24.157Z,34.10
2022-12-05T21:33:54.056Z,27.60
2022-12-05T21:36:23.158Z,28.88
2022-12-05T21:38:56.005Z,27.88
2022-12-05T21:41:25.323Z,29.98
2022-12-05T21:43:56.041Z,21.48
2022-12-05T21:46:24.572Z,20.63
2022-12-05T21:48:53.119Z,21.25
2022-12-05T21:51:21.846Z,18.05
2022-12-05T21:53:50.187Z,19.27
2022-12-05T21:56:22.993Z,18.50
2022-12-05T21:58:51.793Z,24.00
2022-12-05T22:01:23.644Z,23.97
2022-12-05T22:03:53.827Z,20.77
2022-12-05T22:06:21.926Z,21.60
2022-12-05T22:08:50.264Z,23.60
2022-12-05T22:11:20.401Z,23.25
2022-12-05T22:13:49.923Z,23.58
2022-12-05T22:16:18.860Z,17.98
2022-12-05T22:18:48.744Z,18.40
2022-12-05T22:21:18.697Z,22.25
2022-12-05T22:23:47.406Z,21.23
2022-12-05T22:26:17.123Z,19.23
2022-12-05T22:28:45.466Z,20.33
2022-12-05T22:31:15.387Z,20.60
2022-12-05T22:33:43.984Z,18.08
2022-12-05T22:36:15.702Z,18.37
2022-12-05T22:38:45.314Z,15.70
2022-12-05T22:43:44.253Z,14.65
2022-12-05T22:46:14.891Z,15.65
2022-12-05T22:48:43.267Z,14.00
2022-12-05T22:51:13.619Z,13.35
2022-12-05T22:53:41.910Z,13.07
2022-12-05T22:56:12.254Z,11.23
2022-12-05T22:58:41.351Z,12.27
2022-12-05T23:01:11.034Z,10.95
2022-12-05T23:03:39.292Z,11.80
2022-12-05T23:06:11.725Z,11.83
2022-12-05T23:08:42.512Z,11.23
2022-12-05T23:11:11.551Z,9.73
2022-12-05T23:13:40.484Z,9.98
2022-12-05T23:16:10.511Z,10.73
2022-12-05T23:18:47.751Z,10.02
2022-12-05T23:21:18.014Z,9.35
2022-12-05T23:23:48.195Z,10.13
2022-12-05T23:26:16.884Z,10.40
2022-12-05T23:28:44.999Z,9.13
2022-12-05T23:31:14.328Z,11.27
2022-12-05T23:33:42.760Z,10.77
2022-12-05T23:36:11.990Z,10.85
2022-12-05T23:38:41.832Z,13.73
2022-12-05T23:41:14.319Z,14.98
2022-12-05T23:43:44.378Z,13.60
2022-12-05T23:46:14.427Z,15.05
2022-12-05T23:48:42.709Z,11.13
2022-12-05T23:51:12.232Z,11.13
2022-12-05T23:58:41.082Z,8.73
